Citta Di Savona — IMDS — position and weather

sailwx.info

Track history (hours):
 
Tides and Currents Weather Stations Pressure Air Temp Water Temp Dewpoint Dewpoint Depression Visibility Wind Speed Wind Dir Waves Ship Positions

Citta Di Savona

Last reported at 2015-Jul-07 16:20 UTC. Time now 2015-Jul-08 00:08 UTC.
Position N 44°16' E 008°27'.

Length 31 m; draft 4.2 m.

Type: Tug. MMSI: 247402000.

Date/timePositionNaut miles runAvg speedWind from/ knotsBaromVisibWave heightAir tempDewpointWater temp
2015-Jul-07 16:20N 44°16' E 008°27'0 0.0
2015-Jul-07 15:26N 44°16' E 008°27'0 0.0
2015-Jul-07 14:32N 44°16' E 008°27'0 0.0
2015-Jul-07 10:14N 44°16' E 008°27'0 0.0
2015-Jul-07 08:23N 44°16' E 008°27'3 0.1
2015-Jul-05 08:22N 44°18' E 008°29'1 0.0
2015-Jul-04 07:33N 44°18' E 008°30'3 1.8
2015-Jul-04 06:07N 44°17' E 008°28'1 1.4
2015-Jul-04 05:30N 44°16' E 008°28'3 0.1
2015-Jul-03 11:18N 44°18' E 008°29'1 0.1
2015-Jul-03 04:31N 44°19' E 008°30'0 0.0
2015-Jul-02 12:26N 44°19' E 008°30'0 0.2
2015-Jul-02 11:22N 44°19' E 008°30'1 0.8
2015-Jul-02 10:24N 44°18' E 008°29'0 0.0
2015-Jul-02 09:15N 44°18' E 008°29'0 0.0
2015-Jul-02 08:27N 44°18' E 008°29'0 0.0
2015-Jul-02 07:33N 44°18' E 008°29'0 0.0
2015-Jul-01 22:33N 44°18' E 008°29'1 0.0
2015-Jun-30 07:33N 44°19' E 008°30'3 3.4
2015-Jun-30 06:33N 44°16' E 008°27'3 3.1
2015-Jun-30 05:33N 44°19' E 008°29'0 0.2
2015-Jun-30 04:29N 44°18' E 008°29'0 0.1
2015-Jun-29 20:33N 44°18' E 008°30'2 2.5
2015-Jun-29 19:33N 44°17' E 008°27'3 0.1
2015-Jun-28 22:33N 44°19' E 008°30'3 2.5
2015-Jun-28 21:29N 44°17' E 008°28'1 0.5
2015-Jun-28 20:31N 44°17' E 008°28'2 0.2
2015-Jun-28 10:31N 44°18' E 008°29'0 0.2
2015-Jun-28 08:33N 44°19' E 008°30'2 2.1
2015-Jun-28 07:21N 44°17' E 008°27'0 0.0
2015-Jun-28 06:27N 44°17' E 008°27'1 0.6
2015-Jun-28 05:27N 44°16' E 008°28'3 3.0
2015-Jun-28 04:33N 44°18' E 008°30'  
Track history (hours):
 
Tides and Currents Weather Stations Pressure Air Temp Water Temp Dewpoint Dewpoint Depression Visibility Wind Speed Wind Dir Waves Ship Positions

Citta Di Savona

Last reported at 2015-Jul-07 16:20 UTC. Time now 2015-Jul-08 00:08 UTC.
Position N 44°16' E 008°27'.

Length 31 m; draft 4.2 m.

Type: Tug. MMSI: 247402000.

Date/timePositionNaut miles runAvg speedWind from/ knotsBaromVisibWave heightAir tempDewpointWater temp
2015-Jul-07 16:20N 44°16' E 008°27'0 0.0
2015-Jul-07 15:26N 44°16' E 008°27'0 0.0
2015-Jul-07 14:32N 44°16' E 008°27'0 0.0
2015-Jul-07 10:14N 44°16' E 008°27'0 0.0
2015-Jul-07 08:23N 44°16' E 008°27'3 0.1
2015-Jul-05 08:22N 44°18' E 008°29'1 0.0
2015-Jul-04 07:33N 44°18' E 008°30'3 1.8
2015-Jul-04 06:07N 44°17' E 008°28'1 1.4
2015-Jul-04 05:30N 44°16' E 008°28'3 0.1
2015-Jul-03 11:18N 44°18' E 008°29'1 0.1
2015-Jul-03 04:31N 44°19' E 008°30'0 0.0
2015-Jul-02 12:26N 44°19' E 008°30'0 0.2
2015-Jul-02 11:22N 44°19' E 008°30'1 0.8
2015-Jul-02 10:24N 44°18' E 008°29'0 0.0
2015-Jul-02 09:15N 44°18' E 008°29'0 0.0
2015-Jul-02 08:27N 44°18' E 008°29'0 0.0
2015-Jul-02 07:33N 44°18' E 008°29'0 0.0
2015-Jul-01 22:33N 44°18' E 008°29'1 0.0
2015-Jun-30 07:33N 44°19' E 008°30'3 3.4
2015-Jun-30 06:33N 44°16' E 008°27'3 3.1
2015-Jun-30 05:33N 44°19' E 008°29'0 0.2
2015-Jun-30 04:29N 44°18' E 008°29'0 0.1
2015-Jun-29 20:33N 44°18' E 008°30'2 2.5
2015-Jun-29 19:33N 44°17' E 008°27'3 0.1
2015-Jun-28 22:33N 44°19' E 008°30'3 2.5
2015-Jun-28 21:29N 44°17' E 008°28'1 0.5
2015-Jun-28 20:31N 44°17' E 008°28'2 0.2
2015-Jun-28 10:31N 44°18' E 008°29'0 0.2
2015-Jun-28 08:33N 44°19' E 008°30'2 2.1
2015-Jun-28 07:21N 44°17' E 008°27'0 0.0
2015-Jun-28 06:27N 44°17' E 008°27'1 0.6
2015-Jun-28 05:27N 44°16' E 008°28'3 3.0
2015-Jun-28 04:33N 44°18' E 008°30'  

Dump ship's entire track history